Metar Cercanos

 

LEPA - Palma De Mallorc, Spain
Distance from station: ONO 38km
Actualización: Mon, 27-Sep-2021 7:00pm CEST
Few Clouds
Few Clouds
 Viento del OSO
Viento: OSO 15 km/h
Temperatura: 26°C
Rocío: 21°C
Humedad: 74%
Barómetro: 1019 hPa
Clouds: Few Clouds
Visibility: 10 km
Cloud details: Few Clouds 1829 m
2021/09/27 17:00 LEPA 271700Z 24008KT 9999 FEW060 26/21 Q1019 NOSIG
LEMH - Mahon/Menorca Is, Spain
Distance from station: ENE 105km
Actualización: Mon, 27-Sep-2021 7:00pm CEST
Few Clouds
Few Clouds
 Viento del SO
Viento: SO 7 km/h
Temperatura: 25°C
Rocío: 19°C
Humedad: 69%
Barómetro: 1020 hPa
Clouds: Few Clouds
Visibility: 10 km
Cloud details: Few Clouds 975 m
2021/09/27 17:00 LEMH 271700Z 22004KT 190V260 9999 FEW032 25/19 Q1020
 
LEIB - Ibiza/Es Codola, Spain
Distance from station: OSO 165km
Actualización: Mon, 27-Sep-2021 7:00pm CEST
Despejado
Despejado
 Viento del SO
Viento: SO 11 km/h
Temperatura: 25°C
Rocío: 20°C
Humedad: 74%
Barómetro: 1020 hPa
Resumen: Despejado
Visibility: greater than 10 km
2021/09/27 17:00 LEIB 271700Z 23006KT CAVOK 25/20 Q1020 NOSIG
LEBL - Barcelona Airpor, Spain
Distance from station: NNO 225km
Actualización: Mon, 27-Sep-2021 7:00pm CEST
Few Clouds
Few Clouds
 Viento del SO
Viento: SO 11 km/h
Temperatura: 25°C
Rocío: 19°C
Humedad: 69%
Barómetro: 1019 hPa
Clouds: Few Clouds
Visibility: 10 km
Cloud details: Few Clouds 610 m
2021/09/27 17:00 LEBL 271700Z 22006KT 9999 FEW020 25/19 Q1019 NOSIG
 
LEVC - Valencia (civ/Mi, Spain
Distance from station: NO 188km
Actualización: Mon, 27-Sep-2021 7:00pm CEST
Despejado
Despejado
 Viento del E
Viento: E 17 km/h
Temperatura: 26°C
Rocío: 17°C
Humedad: 58%
Barómetro: 1019 hPa
Resumen: Despejado
Visibility: greater than 10 km
2021/09/27 17:00 LEVC 271700Z 09009KT 050V120 CAVOK 26/17 Q1019 NOSIG
LEGE - Gerona/Costa Bra, Spain
Distance from station: N 276km
Actualización: Mon, 27-Sep-2021 7:00pm CEST
Despejado
Despejado
 Viento del E
Viento: E 7 km/h
Temperatura: 25°C
Rocío: 14°C
Humedad: 51%
Barómetro: 1020 hPa
Resumen: Despejado
Visibility: greater than 10 km
2021/09/27 17:00 LEGE 271700Z 10004KT 060V130 CAVOK 25/14 Q1020
 
LEAL - Alicante/El Alte, Spain
Distance from station: OSO 344km
Actualización: Mon, 27-Sep-2021 7:00pm CEST
Despejado
Despejado
 Viento del S
Viento: S 11 km/h
Temperatura: 27°C
Indice Calor: 28°C
Rocío: 17°C
Humedad: 54%
Barómetro: 1019 hPa
Resumen: Despejado
Visibility: greater than 10 km
2021/09/27 17:00 LEAL 271700Z 19006KT 140V230 CAVOK 27/17 Q1019 NOSIG
LEAM - Almeria Airport, Spain
Distance from station: SSO 56km
Actualización: Mon, 27-Sep-2021 7:00pm CEST
Despejado
Despejado
 Viento del SO
Viento: SO 11 km/h
Temperatura: 25°C
Rocío: 19°C
Humedad: 69%
Barómetro: 1019 hPa
Resumen: Despejado
Visibility: greater than 10 km
2021/09/27 17:00 LEAM 271700Z 22006KT 180V250 CAVOK 25/19 Q1019
 
LEZG - Zaragoza (mil/Ci, Spain
Distance from station: NO 431km
Actualización: Mon, 27-Sep-2021 7:00pm CEST
Despejado
Despejado
 Viento del ONO
Viento: ONO 17 km/h
Temperatura: 26°C
Rocío: 12°C
Humedad: 42%
Barómetro: 1020 hPa
Resumen: Despejado
Visibility: greater than 10 km
2021/09/27 17:00 LEZG 271700Z 29009KT CAVOK 26/12 Q1020
LEMD - Madrid/Barajas, Spain
Distance from station: ONO 234km
Actualización: Mon, 27-Sep-2021 7:00pm CEST
Despejado
Despejado
 Viento del E
Viento: E 4 km/h
Temperatura: 26°C
Rocío: 10°C
Humedad: 37%
Barómetro: 1022 hPa
Resumen: Despejado
Visibility: greater than 10 km
2021/09/27 17:00 LEMD 271700Z 08002KT CAVOK 26/10 Q1022 NOSIG
 
LEGR - Granada Airport, Spain
Distance from station: OSO 62km
Actualización: Mon, 27-Sep-2021 7:00pm CEST
Despejado
Despejado
 Viento del O
Viento: O 11 km/h
Temperatura: 30°C
Rocío: 3°C
Humedad: 18%
Barómetro: 1021 hPa
Resumen: Despejado
Visibility: greater than 10 km
2021/09/27 17:00 LEGR 271700Z 28006KT CAVOK 30/03 Q1021
LEMG - Malaga (civ/Mil), Spain
Distance from station: OSO 227km
Actualización: Mon, 27-Sep-2021 7:00pm CEST
Despejado
Despejado
 Viento del ESE
Viento: ESE 20 km/h
Temperatura: 24°C
Rocío: 17°C
Humedad: 65%
Barómetro: 1019 hPa
Resumen: Despejado
Visibility: greater than 10 km
2021/09/27 17:00 LEMG 271700Z 12011KT CAVOK 24/17 Q1019 NOSIG
 
LEZL - Sevilla (civ/Mil, Spain
Distance from station: S 318km
Actualización: Mon, 27-Sep-2021 7:00pm CEST
Despejado
Despejado
 Viento del ONO
Viento: ONO 9 km/h
Temperatura: 30°C
Rocío: 9°C
Humedad: 27%
Barómetro: 1019 hPa
Resumen: Despejado
Visibility: greater than 10 km
2021/09/27 17:00 LEZL 271700Z 29005KT 240V340 CAVOK 30/09 Q1019 NOSIG
LEVT - Vitoria, Spain
Distance from station: NO 226km
Actualización: Mon, 27-Sep-2021 7:00pm CEST
Muy nuboso
Muy nuboso
 Viento del N
Viento: N 19 km/h
Temperatura: 15°C
Rocío: 13°C
Humedad: 88%
Barómetro: 1025 hPa
Clouds: Muy nuboso
Visibility: 10 km
Cloud details: Parcialmente nuboso 457 m
Muy nuboso 792 m
2021/09/27 17:00 LEVT 271700Z 01010KT 340V060 9999 SCT015 BKN026 15/13 Q1025
 
LEBB - Bilbao/Sondica, Spain
Distance from station: NNO 235km
Actualización: Mon, 27-Sep-2021 7:00pm CEST
Cubierto
Cubierto
 Viento del NNO
Viento: NNO 6 km/h
Temperatura: 19°C
Rocío: 15°C
Humedad: 78%
Barómetro: 1025 hPa
Clouds: Cubierto
Visibility: 10 km
Cloud details: Few Clouds 792 m
Cubierto 1524 m
2021/09/27 17:00 LEBB 271700Z 33003KT 300V010 9999 FEW026 OVC050 19/15 Q1025 NOSIG
LESO - San Sebastian/Fu, Spain
Distance from station: N 231km
Actualización: Mon, 27-Sep-2021 7:00pm CEST
Muy nuboso
Muy nuboso
 Viento del OSO
Viento: OSO 9 km/h
Temperatura: 19°C
Rocío: 17°C
Humedad: 88%
Barómetro: 1025 hPa
Clouds: Muy nuboso
Visibility: 10 km
Cloud details: Parcialmente nuboso 975 m
Muy nuboso 1463 m
2021/09/27 17:00 LESO 271700Z 24005KT 200V260 9999 SCT032 BKN048 19/17 Q1025
 
LEVD - Valladolid(Mil/C, Spain
Distance from station: ONO 239km
Actualización: Mon, 27-Sep-2021 7:00pm CEST
Parcialmente nuboso
Parcialmente nuboso
 Viento del SO
Viento: SO 6 km/h
Temperatura: 21°C
Rocío: 13°C
Humedad: 60%
Barómetro: 1023 hPa
Clouds: Parcialmente nuboso
Visibility: 10 km
Cloud details: Parcialmente nuboso 1189 m
2021/09/27 17:00 LEVD 271700Z 22003KT 160V260 9999 SCT039 21/13 Q1023
LESA - Salamanca (civ/M, Spain
Distance from station: ONO 349km
Actualización: Mon, 27-Sep-2021 7:00pm CEST
Parcialmente nuboso
Parcialmente nuboso
 Viento del O
Viento: O 6 km/h
Temperatura: 22°C
Rocío: 14°C
Humedad: 61%
Barómetro: 1024 hPa
Clouds: Parcialmente nuboso
Visibility: 10 km
Cloud details: Parcialmente nuboso 914 m
2021/09/27 17:00 LESA 271700Z 28003KT 200V320 9999 SCT030 22/14 Q1024
 
LEXJ - Santander/Paraya, Spain
Distance from station: NNO 247km
Actualización: Mon, 27-Sep-2021 7:00pm CEST
Cubierto
Cubierto
 Viento del SSO
Viento: SSO 6 km/h
Temperatura: 17°C
Rocío: 13°C
Humedad: 77%
Barómetro: 1025 hPa
Clouds: Cubierto
Visibility: 10 km
Cloud details: Few Clouds 610 m
Cubierto 1524 m
2021/09/27 17:00 LEXJ 271700Z 21003KT 180V270 9999 FEW020 OVC050 17/13 Q1025
LEAS - Asturias/Aviles, Spain
Distance from station: NO 214km
Actualización: Mon, 27-Sep-2021 7:00pm CEST
Muy nuboso
Muy nuboso
 Viento del varies
Viento: varies 2 km/h
Temperatura: 17°C
Rocío: 12°C
Humedad: 73%
Barómetro: 1025 hPa
Clouds: Muy nuboso
Visibility: 10 km
Cloud details: Few Clouds 762 m
Muy nuboso 1463 m
2021/09/27 17:00 LEAS 271700Z VRB01KT 9999 FEW025 BKN048 17/12 Q1025 NOSIG
 
LECO - La Coruna/Alvedr, Spain
Distance from station: ONO 222km
Actualización: Mon, 27-Sep-2021 7:00pm CEST
Despejado
Despejado
 Viento del N
Viento: N 13 km/h
Temperatura: 18°C
Rocío: 11°C
Humedad: 64%
Barómetro: 1024 hPa
Resumen: Despejado
Visibility: greater than 10 km
2021/09/27 17:00 LECO 271700Z 35007KT 290V030 CAVOK 18/11 Q1024 NOSIG
LEVX - Vigo/Peinador, Spain
Distance from station: O 214km
Actualización: Mon, 27-Sep-2021 7:00pm CEST
Despejado
Despejado
 Viento del O
Viento: O 17 km/h
Temperatura: 18°C
Rocío: 13°C
Humedad: 73%
Barómetro: 1023 hPa
Resumen: Despejado
Visibility: greater than 10 km
2021/09/27 17:00 LEVX 271700Z 26009KT CAVOK 18/13 Q1023 NOSIG